createdAt,value
2023-04-30T00:00:05.671Z,38.31
2023-04-30T00:01:05.682Z,38.33
2023-04-30T00:02:05.747Z,38.31
2023-04-30T00:03:05.814Z,38.30
2023-04-30T00:04:05.833Z,38.32
2023-04-30T00:05:05.738Z,38.34
2023-04-30T00:06:05.805Z,38.32
2023-04-30T00:07:05.782Z,38.32
2023-04-30T00:08:05.826Z,38.36
2023-04-30T00:09:05.834Z,38.36
2023-04-30T00:10:05.841Z,38.38
2023-04-30T00:11:05.886Z,38.35
2023-04-30T00:12:05.975Z,38.34
2023-04-30T00:13:05.898Z,38.36
2023-04-30T00:14:05.950Z,38.36
2023-04-30T00:15:05.967Z,38.32
2023-04-30T00:16:06.020Z,38.35
2023-04-30T00:17:05.984Z,38.35
2023-04-30T00:18:06.033Z,38.35
2023-04-30T00:19:06.047Z,38.36
2023-04-30T00:20:06.054Z,38.36
2023-04-30T00:21:06.076Z,38.35
2023-04-30T00:22:06.099Z,38.37
2023-04-30T00:23:06.127Z,38.37
2023-04-30T00:24:06.107Z,38.37
2023-04-30T00:25:06.141Z,38.37
2023-04-30T00:26:06.158Z,38.38
2023-04-30T00:27:06.208Z,38.37
2023-04-30T00:28:06.205Z,38.35
2023-04-30T00:29:06.229Z,38.35
2023-04-30T00:30:06.246Z,38.35
2023-04-30T00:31:06.272Z,38.34
2023-04-30T00:32:06.337Z,38.37
2023-04-30T00:33:06.325Z,38.36
2023-04-30T00:34:06.295Z,38.37
2023-04-30T00:35:06.332Z,38.37
2023-04-30T00:36:06.365Z,38.38
2023-04-30T00:37:06.372Z,38.38
2023-04-30T00:38:06.403Z,38.40
2023-04-30T00:39:06.394Z,38.39
2023-04-30T00:40:06.400Z,38.38
2023-04-30T00:41:06.463Z,38.41
2023-04-30T00:42:06.437Z,38.41
2023-04-30T00:43:06.441Z,38.42
2023-04-30T00:44:06.508Z,38.40
2023-04-30T00:45:06.496Z,38.42
2023-04-30T00:46:06.542Z,38.43
2023-04-30T00:47:06.526Z,38.42
2023-04-30T00:48:06.636Z,38.43
2023-04-30T00:49:06.611Z,38.45
2023-04-30T00:50:06.610Z,38.44
2023-04-30T00:51:06.618Z,38.45
2023-04-30T00:52:06.666Z,38.44
2023-04-30T00:53:06.671Z,38.45
2023-04-30T00:54:06.712Z,38.47
2023-04-30T00:55:06.733Z,38.45
2023-04-30T00:56:06.716Z,38.46
2023-04-30T00:57:06.733Z,38.48
2023-04-30T00:58:06.800Z,38.46
2023-04-30T00:59:06.824Z,38.45
2023-04-30T01:00:06.790Z,38.48
2023-04-30T01:01:06.888Z,38.50
2023-04-30T01:02:06.867Z,38.46
2023-04-30T01:03:06.991Z,38.48
2023-04-30T01:04:06.903Z,38.51
2023-04-30T01:05:06.961Z,38.50
2023-04-30T01:06:06.972Z,38.55
2023-04-30T01:07:06.987Z,38.54
2023-04-30T01:08:06.995Z,38.55
2023-04-30T01:09:07.041Z,38.55
2023-04-30T01:10:07.059Z,38.56
2023-04-30T01:11:07.068Z,38.55
2023-04-30T01:12:07.089Z,38.56
2023-04-30T01:13:07.138Z,38.55
2023-04-30T01:14:07.150Z,38.54
2023-04-30T01:15:07.135Z,38.54
2023-04-30T01:16:07.210Z,38.54
2023-04-30T01:17:07.235Z,38.55
2023-04-30T01:18:07.253Z,38.58
2023-04-30T01:19:07.297Z,38.58
2023-04-30T01:20:07.305Z,38.56
2023-04-30T01:21:07.336Z,38.56
2023-04-30T01:22:07.337Z,38.56
2023-04-30T01:23:07.496Z,38.57
2023-04-30T01:24:07.381Z,38.56
2023-04-30T01:25:07.444Z,38.55
2023-04-30T01:26:07.461Z,38.55
2023-04-30T01:27:07.478Z,38.51
2023-04-30T01:28:07.519Z,38.51
2023-04-30T01:29:07.543Z,38.52
2023-04-30T01:30:07.581Z,38.53
2023-04-30T01:31:07.639Z,38.51
2023-04-30T01:32:07.620Z,38.51
2023-04-30T01:33:07.753Z,38.52
2023-04-30T01:34:07.665Z,38.53
2023-04-30T01:35:07.674Z,38.54
2023-04-30T01:36:07.693Z,38.50
2023-04-30T01:37:07.745Z,38.54
2023-04-30T01:38:07.757Z,38.56
2023-04-30T01:39:07.779Z,38.55
2023-04-30T01:40:07.804Z,38.57
2023-04-30T01:41:07.813Z,38.57
2023-04-30T01:42:07.877Z,38.57
2023-04-30T01:43:07.874Z,38.55
2023-04-30T01:44:07.904Z,38.54
2023-04-30T01:45:07.962Z,38.55
2023-04-30T01:46:08.025Z,38.57
2023-04-30T01:47:07.989Z,38.51
2023-04-30T01:48:08.066Z,38.55
2023-04-30T01:49:08.045Z,38.53
2023-04-30T01:50:08.063Z,38.54
2023-04-30T01:51:08.084Z,38.55
2023-04-30T01:52:08.087Z,38.55
2023-04-30T01:53:08.113Z,38.55
2023-04-30T01:54:08.150Z,38.53
2023-04-30T01:55:08.145Z,38.56
2023-04-30T01:56:08.197Z,38.53
2023-04-30T01:57:08.165Z,38.56
2023-04-30T01:58:08.216Z,38.56
2023-04-30T01:59:08.233Z,38.55
2023-04-30T02:00:08.245Z,38.53
2023-04-30T02:01:08.286Z,38.52
2023-04-30T02:02:08.281Z,38.50
2023-04-30T02:03:08.441Z,38.51
2023-04-30T02:04:08.355Z,38.50
2023-04-30T02:05:08.356Z,38.50
2023-04-30T02:06:08.439Z,38.51
2023-04-30T02:07:08.397Z,38.53
2023-04-30T02:08:08.440Z,38.52
2023-04-30T02:09:08.439Z,38.55
2023-04-30T02:10:08.464Z,38.52
2023-04-30T02:11:08.470Z,38.55
2023-04-30T02:12:08.502Z,38.53
2023-04-30T02:13:08.520Z,38.55
2023-04-30T02:14:08.578Z,38.54
2023-04-30T02:15:08.602Z,38.54
2023-04-30T02:16:08.664Z,38.55
2023-04-30T02:17:08.619Z,38.53
2023-04-30T02:18:08.694Z,38.53
2023-04-30T02:19:08.662Z,38.55
2023-04-30T02:20:08.657Z,38.55
2023-04-30T02:21:08.708Z,38.57
2023-04-30T02:22:08.717Z,38.57
2023-04-30T02:23:08.737Z,38.55
2023-04-30T02:24:08.768Z,38.55
2023-04-30T02:25:08.806Z,38.58
2023-04-30T02:26:08.793Z,38.58
2023-04-30T02:27:08.800Z,38.55
2023-04-30T02:28:08.875Z,38.57
2023-04-30T02:29:08.895Z,38.56
2023-04-30T02:30:08.877Z,38.61
2023-04-30T02:31:09.020Z,38.59
2023-04-30T02:32:08.953Z,38.55
2023-04-30T02:33:08.989Z,38.57
2023-04-30T02:34:09.004Z,38.56
2023-04-30T02:35:09.037Z,38.57
2023-04-30T02:36:09.064Z,38.59
2023-04-30T02:37:09.034Z,38.56
2023-04-30T02:38:09.086Z,38.57
2023-04-30T02:39:09.106Z,38.55
2023-04-30T02:40:09.159Z,38.55
2023-04-30T02:41:09.155Z,38.57
2023-04-30T02:42:09.187Z,38.54
2023-04-30T02:43:09.188Z,38.52
2023-04-30T02:44:09.227Z,38.55
2023-04-30T02:45:09.249Z,38.53
2023-04-30T02:46:09.306Z,38.55
2023-04-30T02:47:09.269Z,38.54
2023-04-30T02:48:09.390Z,38.54
2023-04-30T02:49:09.332Z,38.53
2023-04-30T02:50:09.367Z,38.51
2023-04-30T02:51:09.399Z,38.52
2023-04-30T02:52:09.453Z,38.49
2023-04-30T02:53:09.442Z,38.50
2023-04-30T02:54:09.493Z,38.51
2023-04-30T02:55:09.528Z,38.47
2023-04-30T02:56:09.533Z,38.49
2023-04-30T02:57:09.554Z,38.48
2023-04-30T02:58:09.555Z,38.46
2023-04-30T02:59:09.617Z,38.48
2023-04-30T03:00:09.661Z,38.49
2023-04-30T03:01:09.720Z,38.49
2023-04-30T03:02:09.741Z,38.48
2023-04-30T03:03:09.869Z,38.49
2023-04-30T03:04:09.741Z,38.48
2023-04-30T03:05:09.783Z,38.46
2023-04-30T03:06:09.844Z,38.45
2023-04-30T03:07:09.833Z,38.45
2023-04-30T03:08:09.856Z,38.44
2023-04-30T03:09:09.881Z,38.44
2023-04-30T03:10:09.895Z,38.45
2023-04-30T03:11:09.922Z,38.43
2023-04-30T03:12:09.958Z,38.44
2023-04-30T03:13:09.967Z,38.39
2023-04-30T03:14:10.002Z,38.40
2023-04-30T03:15:10.032Z,38.41
2023-04-30T03:16:10.067Z,38.43
2023-04-30T03:17:10.066Z,38.42
2023-04-30T03:18:10.097Z,38.42
2023-04-30T03:19:10.106Z,38.42
2023-04-30T03:20:10.156Z,38.43
2023-04-30T03:21:10.176Z,38.44
2023-04-30T03:22:10.278Z,38.47
2023-04-30T03:23:10.238Z,38.44
2023-04-30T03:24:10.267Z,38.43
2023-04-30T03:25:10.297Z,38.42
2023-04-30T03:26:10.349Z,38.42
2023-04-30T03:27:10.355Z,38.43
2023-04-30T03:28:10.354Z,38.43
2023-04-30T03:29:10.385Z,38.39
2023-04-30T03:30:10.426Z,38.40
2023-04-30T03:31:10.489Z,38.39
2023-04-30T03:32:10.485Z,38.37
2023-04-30T03:33:10.650Z,38.39
2023-04-30T03:34:10.545Z,38.39
2023-04-30T03:35:10.540Z,38.39
2023-04-30T03:36:10.583Z,38.37
2023-04-30T03:37:10.620Z,38.36
2023-04-30T03:38:10.723Z,38.42
2023-04-30T03:39:10.655Z,38.38
2023-04-30T03:40:10.661Z,38.37
2023-04-30T03:41:10.682Z,38.34
2023-04-30T03:42:10.724Z,38.34
2023-04-30T03:43:10.752Z,38.35
2023-04-30T03:44:10.759Z,38.34
2023-04-30T03:45:10.777Z,38.32
2023-04-30T03:46:10.840Z,38.34
2023-04-30T03:47:10.853Z,38.32
2023-04-30T03:48:10.911Z,38.33
2023-04-30T03:49:10.880Z,38.33
2023-04-30T03:50:10.916Z,38.35
2023-04-30T03:51:10.951Z,38.33
2023-04-30T03:52:11.015Z,38.35
2023-04-30T03:53:11.007Z,38.31
2023-04-30T03:54:11.040Z,38.30
2023-04-30T03:55:11.064Z,38.30
2023-04-30T03:56:11.100Z,38.26
2023-04-30T03:57:11.143Z,38.24
2023-04-30T03:58:11.187Z,38.27
2023-04-30T03:59:11.167Z,38.26
2023-04-30T04:00:11.218Z,38.27
2023-04-30T04:01:11.257Z,38.23
2023-04-30T04:02:11.288Z,38.25
2023-04-30T04:03:11.331Z,38.20
2023-04-30T04:04:11.454Z,38.19
2023-04-30T04:05:11.394Z,38.21
2023-04-30T04:06:12.298Z,38.20
2023-04-30T04:07:11.474Z,38.17
2023-04-30T04:08:11.485Z,38.17
2023-04-30T04:09:11.517Z,38.16
2023-04-30T04:10:11.581Z,38.17
2023-04-30T04:11:11.568Z,38.15
2023-04-30T04:12:11.617Z,38.14
2023-04-30T04:13:11.635Z,38.14
2023-04-30T04:14:11.666Z,38.11
2023-04-30T04:15:11.692Z,38.08
2023-04-30T04:16:11.798Z,38.08
2023-04-30T04:17:11.776Z,38.06
2023-04-30T04:18:11.811Z,38.09
2023-04-30T04:19:11.808Z,38.09
2023-04-30T04:20:13.880Z,38.07
2023-04-30T04:21:11.886Z,38.06
2023-04-30T04:22:11.902Z,38.04
2023-04-30T04:23:11.957Z,38.06
2023-04-30T04:24:12.003Z,38.03
2023-04-30T04:25:12.037Z,38.01
2023-04-30T04:26:12.047Z,38.00
2023-04-30T04:27:12.090Z,38.02
2023-04-30T04:28:12.108Z,37.98
2023-04-30T04:29:12.145Z,37.97
2023-04-30T04:30:12.185Z,37.97
2023-04-30T04:31:12.250Z,37.96
2023-04-30T04:32:12.265Z,37.94
2023-04-30T04:33:12.283Z,37.96
2023-04-30T04:34:12.336Z,37.92
2023-04-30T04:35:12.336Z,37.96
2023-04-30T04:36:12.384Z,37.95
2023-04-30T04:37:12.418Z,37.92
2023-04-30T04:38:12.472Z,37.91
2023-04-30T04:39:12.505Z,37.90
2023-04-30T04:40:12.566Z,37.88
2023-04-30T04:41:12.571Z,37.89
2023-04-30T04:42:12.621Z,37.89
2023-04-30T04:43:12.628Z,37.86
2023-04-30T04:44:12.685Z,37.86
2023-04-30T04:45:12.690Z,37.85
2023-04-30T04:46:14.425Z,37.83
2023-04-30T04:47:12.752Z,37.84
2023-04-30T04:48:12.780Z,37.83
2023-04-30T04:49:12.860Z,37.82
2023-04-30T04:50:12.866Z,37.81
2023-04-30T04:51:12.898Z,37.78
2023-04-30T04:52:12.945Z,37.78
2023-04-30T04:53:12.951Z,37.75
2023-04-30T04:54:13.017Z,37.73
2023-04-30T04:55:13.024Z,37.77
2023-04-30T04:56:13.093Z,37.73
2023-04-30T04:57:13.110Z,37.73
2023-04-30T04:58:13.139Z,37.70
2023-04-30T04:59:13.215Z,37.70
2023-04-30T05:00:13.192Z,37.68
2023-04-30T05:01:13.264Z,37.68
2023-04-30T05:02:13.253Z,37.67
2023-04-30T05:03:13.445Z,37.66
2023-04-30T05:04:13.337Z,37.65
2023-04-30T05:05:13.360Z,37.63
2023-04-30T05:06:13.447Z,37.62
2023-04-30T05:07:13.672Z,37.64
2023-04-30T05:08:13.458Z,37.62
2023-04-30T05:09:13.577Z,37.60
2023-04-30T05:10:13.522Z,37.59
2023-04-30T05:11:15.508Z,37.58
2023-04-30T05:12:13.584Z,37.58
2023-04-30T05:13:13.626Z,37.59
2023-04-30T05:14:13.672Z,37.59
2023-04-30T05:15:13.690Z,37.57
2023-04-30T05:16:13.749Z,37.55
2023-04-30T05:17:13.728Z,37.56
2023-04-30T05:18:13.776Z,37.55
2023-04-30T05:19:13.829Z,37.54
2023-04-30T05:20:13.855Z,37.54
2023-04-30T05:21:13.869Z,37.52
2023-04-30T05:22:13.885Z,37.55
2023-04-30T05:23:14.062Z,37.52
2023-04-30T05:24:13.982Z,37.50
2023-04-30T05:25:14.018Z,37.49
2023-04-30T05:26:14.020Z,37.50
2023-04-30T05:27:14.093Z,37.46
2023-04-30T05:28:14.138Z,37.45
2023-04-30T05:29:14.181Z,37.45
2023-04-30T05:30:14.179Z,37.43
2023-04-30T05:31:14.208Z,37.43
2023-04-30T05:32:14.417Z,37.44
2023-04-30T05:33:14.302Z,37.43
2023-04-30T05:34:14.304Z,37.42
2023-04-30T05:35:14.393Z,37.40
2023-04-30T05:36:14.421Z,37.39
2023-04-30T05:37:14.442Z,37.37
2023-04-30T05:38:14.481Z,37.37
2023-04-30T05:39:14.509Z,37.40
2023-04-30T05:40:14.522Z,37.37
2023-04-30T05:41:14.562Z,37.35
2023-04-30T05:42:14.618Z,37.33
2023-04-30T05:43:14.642Z,37.36
2023-04-30T05:44:14.685Z,37.34
2023-04-30T05:45:14.740Z,37.33
2023-04-30T05:46:14.778Z,37.30
2023-04-30T05:47:14.769Z,37.32
2023-04-30T05:48:14.838Z,37.29
2023-04-30T05:49:14.899Z,37.27
2023-04-30T05:50:14.893Z,37.27
2023-04-30T05:51:14.921Z,37.27
2023-04-30T05:52:14.993Z,37.27
2023-04-30T05:53:15.018Z,37.25
2023-04-30T05:54:15.028Z,37.24
2023-04-30T05:55:15.116Z,37.27
2023-04-30T05:56:15.101Z,37.27
2023-04-30T05:57:15.232Z,37.26
2023-04-30T05:58:15.211Z,37.25
2023-04-30T05:59:15.209Z,37.23
2023-04-30T06:00:15.281Z,37.24
2023-04-30T06:01:15.295Z,37.24
2023-04-30T06:02:15.360Z,37.25
2023-04-30T06:03:15.437Z,37.22
2023-04-30T06:04:15.441Z,37.22
2023-04-30T06:05:16.310Z,37.25
2023-04-30T06:06:15.665Z,37.23
2023-04-30T06:07:15.500Z,37.22
2023-04-30T06:08:15.566Z,37.22
2023-04-30T06:09:15.670Z,37.25
2023-04-30T06:10:15.669Z,37.24
2023-04-30T06:11:15.653Z,37.23
2023-04-30T06:12:15.677Z,37.24
2023-04-30T06:13:15.699Z,37.23
2023-04-30T06:14:15.752Z,37.19
2023-04-30T06:15:15.813Z,37.22
2023-04-30T06:16:15.928Z,37.20
2023-04-30T06:17:15.849Z,37.18
2023-04-30T06:18:15.911Z,37.21
2023-04-30T06:19:15.910Z,37.21
2023-04-30T06:20:15.960Z,37.20
2023-04-30T06:21:16.002Z,37.21
2023-04-30T06:22:16.021Z,37.19
2023-04-30T06:23:16.069Z,37.21
2023-04-30T06:24:16.087Z,37.23
2023-04-30T06:25:16.143Z,37.22
2023-04-30T06:26:16.179Z,37.23
2023-04-30T06:27:16.218Z,37.25
2023-04-30T06:28:16.246Z,37.25
2023-04-30T06:29:16.306Z,37.25
2023-04-30T06:30:16.293Z,37.24
2023-04-30T06:31:16.381Z,37.23
2023-04-30T06:32:16.377Z,37.24
2023-04-30T06:33:16.417Z,37.23
2023-04-30T06:34:16.490Z,37.25
2023-04-30T06:35:16.475Z,37.23
2023-04-30T06:36:16.544Z,37.24
2023-04-30T06:37:16.558Z,37.21
2023-04-30T06:38:16.632Z,37.22
2023-04-30T06:39:16.649Z,37.19
2023-04-30T06:40:16.679Z,37.20
2023-04-30T06:41:16.686Z,37.20
2023-04-30T06:42:16.713Z,37.19
2023-04-30T06:43:16.759Z,37.21
2023-04-30T06:44:16.815Z,37.21
2023-04-30T06:45:16.858Z,37.20
2023-04-30T06:46:16.892Z,37.20
2023-04-30T06:47:16.908Z,37.16
2023-04-30T06:48:16.936Z,37.18
2023-04-30T06:49:16.970Z,37.20
2023-04-30T06:50:17.015Z,37.19
2023-04-30T06:51:17.035Z,37.20
2023-04-30T06:52:17.058Z,37.21
2023-04-30T06:53:17.103Z,37.17
2023-04-30T06:54:17.189Z,37.16
2023-04-30T06:55:17.156Z,37.16
2023-04-30T06:56:17.182Z,37.15
2023-04-30T06:57:17.230Z,37.13
2023-04-30T06:58:17.304Z,37.10
2023-04-30T06:59:17.293Z,37.10
2023-04-30T07:00:17.313Z,37.10
2023-04-30T07:01:17.503Z,37.09
2023-04-30T07:02:18.107Z,37.08
2023-04-30T07:03:17.512Z,37.08
2023-04-30T07:04:17.463Z,37.08
2023-04-30T07:05:17.518Z,37.05
2023-04-30T07:06:17.529Z,37.03
2023-04-30T07:07:17.590Z,37.02
2023-04-30T07:08:17.685Z,37.02
2023-04-30T07:09:17.629Z,37.04
2023-04-30T07:10:17.681Z,37.02
2023-04-30T07:11:17.705Z,36.99
2023-04-30T07:12:17.750Z,36.98
2023-04-30T07:13:17.738Z,36.98
2023-04-30T07:14:17.783Z,36.95
2023-04-30T07:15:17.817Z,36.99
2023-04-30T07:16:17.859Z,36.94
2023-04-30T07:17:17.963Z,36.95
2023-04-30T07:18:17.894Z,36.93
2023-04-30T07:19:17.960Z,36.94
2023-04-30T07:20:17.988Z,36.92
2023-04-30T07:21:17.985Z,36.91
2023-04-30T07:22:18.031Z,36.89
2023-04-30T07:23:18.026Z,36.90
2023-04-30T07:24:18.068Z,36.88
2023-04-30T07:25:18.067Z,36.91
2023-04-30T07:26:18.098Z,36.93
2023-04-30T07:27:18.146Z,36.92
2023-04-30T07:28:18.156Z,36.94
2023-04-30T07:29:18.173Z,36.91
2023-04-30T07:30:18.194Z,36.90
2023-04-30T07:31:18.261Z,36.89
2023-04-30T07:32:18.248Z,36.91
2023-04-30T07:33:18.333Z,36.89
2023-04-30T07:34:18.369Z,36.90
2023-04-30T07:35:18.290Z,36.90
2023-04-30T07:36:18.316Z,36.90
2023-04-30T07:37:18.346Z,36.90
2023-04-30T07:38:18.400Z,36.88
2023-04-30T07:39:18.393Z,36.87
2023-04-30T07:40:28.622Z,36.83
2023-04-30T07:41:19.420Z,36.84
2023-04-30T07:42:18.425Z,36.84
2023-04-30T07:43:18.384Z,36.87
2023-04-30T07:44:18.389Z,36.91
2023-04-30T07:45:18.373Z,36.86
2023-04-30T07:46:18.426Z,36.87
2023-04-30T07:47:18.361Z,36.86
2023-04-30T07:48:18.385Z,36.85
2023-04-30T07:49:18.384Z,36.86
2023-04-30T07:50:18.342Z,36.83
2023-04-30T07:51:18.338Z,36.83
2023-04-30T07:52:18.342Z,36.84
2023-04-30T07:53:18.335Z,36.82
2023-04-30T07:54:18.346Z,36.79
2023-04-30T07:55:18.317Z,36.80
2023-04-30T07:56:18.332Z,36.76
2023-04-30T07:57:18.292Z,36.76
2023-04-30T07:58:18.292Z,36.79
2023-04-30T07:59:18.302Z,36.78
2023-04-30T08:00:18.294Z,36.75
2023-04-30T08:01:18.279Z,36.75
2023-04-30T08:02:18.293Z,36.77
2023-04-30T08:03:18.327Z,36.71
2023-04-30T08:04:18.311Z,36.72
2023-04-30T08:05:18.322Z,36.69
2023-04-30T08:06:18.338Z,36.69
2023-04-30T08:07:18.327Z,36.63
2023-04-30T08:08:18.352Z,36.59
2023-04-30T08:09:18.375Z,36.60
2023-04-30T08:10:18.354Z,36.60
2023-04-30T08:11:18.390Z,36.59
2023-04-30T08:12:18.433Z,36.60
2023-04-30T08:13:18.413Z,36.58
2023-04-30T08:14:18.427Z,36.57
2023-04-30T08:15:18.445Z,36.55
2023-04-30T08:16:18.510Z,36.53
2023-04-30T08:17:18.490Z,36.51
2023-04-30T08:18:18.512Z,36.50
2023-04-30T08:19:18.502Z,36.45
2023-04-30T08:20:18.505Z,36.47
2023-04-30T08:21:18.511Z,36.43
2023-04-30T08:22:18.573Z,36.45
2023-04-30T08:23:18.532Z,36.47
2023-04-30T08:24:18.557Z,36.43
2023-04-30T08:25:18.546Z,36.40
2023-04-30T08:26:18.592Z,36.40
2023-04-30T08:27:18.651Z,36.42
2023-04-30T08:28:18.610Z,36.39
2023-04-30T08:29:18.639Z,36.40
2023-04-30T08:30:18.632Z,36.42
2023-04-30T08:31:18.679Z,36.39
2023-04-30T08:32:18.798Z,36.40
2023-04-30T08:33:18.723Z,36.39
2023-04-30T08:34:18.678Z,36.37
2023-04-30T08:35:18.688Z,36.33
2023-04-30T08:36:18.685Z,36.32
2023-04-30T08:37:18.679Z,36.35
2023-04-30T08:38:18.690Z,36.35
2023-04-30T08:39:18.687Z,36.34
2023-04-30T08:40:18.814Z,36.40
2023-04-30T08:41:18.760Z,36.35
2023-04-30T08:42:18.748Z,36.35
2023-04-30T08:43:18.754Z,36.35
2023-04-30T08:44:18.800Z,36.32
2023-04-30T08:45:18.750Z,36.35
2023-04-30T08:46:18.808Z,36.29
2023-04-30T08:47:18.894Z,36.29
2023-04-30T08:48:18.799Z,36.26
2023-04-30T08:49:18.827Z,36.23
2023-04-30T08:50:18.871Z,36.26
2023-04-30T08:51:18.832Z,36.22
2023-04-30T08:52:18.834Z,36.21
2023-04-30T08:53:18.836Z,36.24
2023-04-30T08:54:18.888Z,36.28
2023-04-30T08:55:18.850Z,36.24
2023-04-30T08:56:18.882Z,36.28
2023-04-30T08:57:18.912Z,36.26
2023-04-30T08:58:18.913Z,36.24
2023-04-30T08:59:18.917Z,36.24
2023-04-30T09:00:19.038Z,36.21
2023-04-30T09:01:18.953Z,36.19
2023-04-30T09:02:18.926Z,36.19
2023-04-30T09:03:18.970Z,36.17
2023-04-30T09:04:18.926Z,36.16
2023-04-30T09:05:18.942Z,36.18
2023-04-30T09:06:18.970Z,36.17
2023-04-30T09:07:18.939Z,36.19
2023-04-30T09:08:18.982Z,36.18
2023-04-30T09:09:18.975Z,36.19
2023-04-30T09:10:18.982Z,36.18
2023-04-30T09:11:18.960Z,36.18
2023-04-30T09:12:19.559Z,36.16
2023-04-30T09:13:18.996Z,36.16
2023-04-30T09:14:18.968Z,36.13
2023-04-30T09:15:18.990Z,36.12
2023-04-30T09:16:18.986Z,36.12
2023-04-30T09:17:18.996Z,36.12
2023-04-30T09:18:19.062Z,36.10
2023-04-30T09:19:18.969Z,36.07
2023-04-30T09:20:18.997Z,36.08
2023-04-30T09:21:18.969Z,36.09
2023-04-30T09:22:19.170Z,36.03
2023-04-30T09:23:19.016Z,36.07
2023-04-30T09:24:18.985Z,36.01
2023-04-30T09:25:18.981Z,36.05
2023-04-30T09:26:20.152Z,35.99
2023-04-30T09:27:18.982Z,35.99
2023-04-30T09:28:18.972Z,35.99
2023-04-30T09:29:18.997Z,35.98
2023-04-30T09:30:18.990Z,35.94
2023-04-30T09:31:18.965Z,35.94
2023-04-30T09:32:18.970Z,35.93
2023-04-30T09:33:18.949Z,35.94
2023-04-30T09:34:18.937Z,35.94
2023-04-30T09:35:18.971Z,35.94
2023-04-30T09:36:18.947Z,35.92
2023-04-30T09:37:18.954Z,35.90
2023-04-30T09:38:18.982Z,35.89
2023-04-30T09:39:18.981Z,35.90
2023-04-30T09:40:18.978Z,35.91
2023-04-30T09:41:18.985Z,35.85
2023-04-30T09:42:19.013Z,35.85
2023-04-30T09:43:19.002Z,35.89
2023-04-30T09:44:19.006Z,35.90
2023-04-30T09:45:18.990Z,35.84
2023-04-30T09:46:19.058Z,35.88
2023-04-30T09:47:19.021Z,35.84
2023-04-30T09:48:19.068Z,35.84
2023-04-30T09:49:19.010Z,35.83
2023-04-30T09:50:19.021Z,35.87
2023-04-30T09:51:19.012Z,35.85
2023-04-30T09:52:19.014Z,35.87
2023-04-30T09:53:18.997Z,35.85
2023-04-30T09:54:19.035Z,35.81
2023-04-30T09:55:19.078Z,35.79
2023-04-30T09:56:19.062Z,35.75
2023-04-30T09:57:19.105Z,35.82
2023-04-30T09:58:19.154Z,35.81
2023-04-30T09:59:19.166Z,35.87
2023-04-30T10:00:19.206Z,35.79
2023-04-30T10:01:19.352Z,35.76
2023-04-30T10:02:19.272Z,35.78
2023-04-30T10:03:19.291Z,35.78
2023-04-30T10:04:19.439Z,35.78
2023-04-30T10:05:19.354Z,35.69
2023-04-30T10:06:19.538Z,35.68
2023-04-30T10:07:21.584Z,35.59
2023-04-30T10:08:19.479Z,35.50
2023-04-30T10:09:19.501Z,35.50
2023-04-30T10:10:19.462Z,35.44
2023-04-30T10:11:19.476Z,35.41
2023-04-30T10:12:19.475Z,35.41
2023-04-30T10:13:19.495Z,35.39
2023-04-30T10:14:19.609Z,35.37
2023-04-30T10:15:19.786Z,35.36
2023-04-30T10:16:19.703Z,35.30
2023-04-30T10:17:19.441Z,35.25
2023-04-30T10:18:19.419Z,35.21
2023-04-30T10:19:19.430Z,35.24
2023-04-30T10:20:19.408Z,35.21
2023-04-30T10:21:19.395Z,35.22
2023-04-30T10:22:19.406Z,35.19
2023-04-30T10:23:19.419Z,35.19
2023-04-30T10:24:19.523Z,35.18
2023-04-30T10:25:19.370Z,35.16
2023-04-30T10:26:19.390Z,35.15
2023-04-30T10:27:19.392Z,35.13
2023-04-30T10:28:19.363Z,35.09
2023-04-30T10:29:19.368Z,35.07
2023-04-30T10:30:19.332Z,35.08
2023-04-30T10:31:19.316Z,35.08
2023-04-30T10:32:19.404Z,35.07
2023-04-30T10:33:19.362Z,35.07
2023-04-30T10:34:19.311Z,35.05
2023-04-30T10:35:19.302Z,35.04
2023-04-30T10:36:19.295Z,35.01
2023-04-30T10:37:19.291Z,35.01
2023-04-30T10:38:19.295Z,35.01
2023-04-30T10:39:19.265Z,34.98
2023-04-30T10:40:19.287Z,34.98
2023-04-30T10:41:19.251Z,34.96
2023-04-30T10:42:19.272Z,34.97
2023-04-30T10:43:19.355Z,34.93
2023-04-30T10:44:19.308Z,34.93
2023-04-30T10:45:19.274Z,34.93
2023-04-30T10:46:19.310Z,34.92
2023-04-30T10:47:19.236Z,34.88
2023-04-30T10:48:19.188Z,34.88
2023-04-30T10:49:19.230Z,34.88
2023-04-30T10:50:19.194Z,34.83
2023-04-30T10:51:19.216Z,34.80
2023-04-30T10:52:19.203Z,34.79
2023-04-30T10:53:19.233Z,34.78
2023-04-30T10:54:19.277Z,34.73
2023-04-30T10:55:19.371Z,34.72
2023-04-30T10:56:19.362Z,34.69
2023-04-30T10:57:19.372Z,34.65
2023-04-30T10:58:19.426Z,34.64
2023-04-30T10:59:19.477Z,34.65
2023-04-30T11:00:19.509Z,34.63
2023-04-30T11:01:19.539Z,34.61
2023-04-30T11:02:19.601Z,34.61
2023-04-30T11:03:19.575Z,34.62
2023-04-30T11:04:19.651Z,34.57
2023-04-30T11:05:19.851Z,34.56
2023-04-30T11:06:19.712Z,34.54
2023-04-30T11:07:19.717Z,34.53
2023-04-30T11:08:19.747Z,34.53
2023-04-30T11:09:19.791Z,34.51
2023-04-30T11:10:19.804Z,34.50
2023-04-30T11:11:19.844Z,34.50
2023-04-30T11:12:19.868Z,34.48
2023-04-30T11:13:19.854Z,34.45
2023-04-30T11:14:19.906Z,34.44
2023-04-30T11:15:19.946Z,34.46
2023-04-30T11:16:20.000Z,34.45
2023-04-30T11:17:20.018Z,34.42
2023-04-30T11:18:19.995Z,34.43
2023-04-30T11:19:20.057Z,34.43
2023-04-30T11:20:20.034Z,34.40
2023-04-30T11:21:20.040Z,34.40
2023-04-30T11:22:20.076Z,34.41
2023-04-30T11:23:28.505Z,34.41
2023-04-30T11:24:21.116Z,34.39
2023-04-30T11:25:20.087Z,34.40
2023-04-30T11:26:20.060Z,34.39
2023-04-30T11:27:20.068Z,34.37
2023-04-30T11:28:20.035Z,34.32
2023-04-30T11:29:20.090Z,34.29
2023-04-30T11:30:20.057Z,34.24
2023-04-30T11:31:20.099Z,34.24
2023-04-30T11:32:20.118Z,34.23
2023-04-30T11:33:20.028Z,34.24
2023-04-30T11:34:20.022Z,34.22
2023-04-30T11:35:20.031Z,34.23
2023-04-30T11:36:19.993Z,34.22
2023-04-30T11:37:19.988Z,34.20
2023-04-30T11:38:20.024Z,34.16
2023-04-30T11:39:19.977Z,34.13
2023-04-30T11:40:20.009Z,34.07
2023-04-30T11:41:19.948Z,34.04
2023-04-30T11:42:19.986Z,34.04
2023-04-30T11:43:19.955Z,34.05
2023-04-30T11:44:19.972Z,34.06
2023-04-30T11:45:19.990Z,34.03
2023-04-30T11:46:19.974Z,34.03
2023-04-30T11:47:20.038Z,34.04
2023-04-30T11:48:19.984Z,34.04
2023-04-30T11:49:20.008Z,34.03
2023-04-30T11:50:20.072Z,33.99
2023-04-30T11:51:20.098Z,33.98
2023-04-30T11:52:20.099Z,33.97
2023-04-30T11:53:20.084Z,33.97
2023-04-30T11:54:20.139Z,33.99
2023-04-30T11:55:20.479Z,33.97
2023-04-30T11:56:20.188Z,33.98
2023-04-30T11:57:20.205Z,33.95
2023-04-30T11:58:20.194Z,33.91
2023-04-30T11:59:20.237Z,33.88
2023-04-30T12:00:20.247Z,33.90
2023-04-30T12:01:20.272Z,33.88
2023-04-30T12:02:20.310Z,33.85
2023-04-30T12:03:20.346Z,33.87
2023-04-30T12:04:20.333Z,33.82
2023-04-30T12:05:20.355Z,33.84
2023-04-30T12:06:20.401Z,33.80
2023-04-30T12:07:22.063Z,33.79
2023-04-30T12:08:20.385Z,33.75
2023-04-30T12:09:20.395Z,33.72
2023-04-30T12:10:20.499Z,33.71
2023-04-30T12:11:20.429Z,33.68
2023-04-30T12:12:20.462Z,33.63
2023-04-30T12:13:20.468Z,33.66
2023-04-30T12:14:20.489Z,33.65
2023-04-30T12:15:20.536Z,33.66
2023-04-30T12:16:20.568Z,33.56
2023-04-30T12:17:20.556Z,33.56
2023-04-30T12:18:20.570Z,33.55
2023-04-30T12:19:20.564Z,33.50
2023-04-30T12:20:20.602Z,33.48
2023-04-30T12:21:20.633Z,33.46
2023-04-30T12:22:20.631Z,33.44
2023-04-30T12:23:20.643Z,33.40
2023-04-30T12:24:20.691Z,33.41
2023-04-30T12:25:20.684Z,33.40
2023-04-30T12:26:20.703Z,33.39
2023-04-30T12:27:21.049Z,33.41
2023-04-30T12:28:21.144Z,33.37
2023-04-30T12:29:20.782Z,33.38
2023-04-30T12:30:20.788Z,33.37
2023-04-30T12:31:20.814Z,33.39
2023-04-30T12:32:20.931Z,33.35
2023-04-30T12:33:21.003Z,33.37
2023-04-30T12:34:20.884Z,33.29
2023-04-30T12:35:20.896Z,33.26
2023-04-30T12:36:20.906Z,33.22
2023-04-30T12:37:20.909Z,33.17
2023-04-30T12:38:20.964Z,33.16
2023-04-30T12:39:20.964Z,33.16
2023-04-30T12:40:20.995Z,33.18
2023-04-30T12:41:20.990Z,33.13
2023-04-30T12:42:21.027Z,33.09
2023-04-30T12:43:21.065Z,33.09
2023-04-30T12:44:21.113Z,33.04
2023-04-30T12:45:21.119Z,33.04
2023-04-30T12:46:21.177Z,32.98
2023-04-30T12:47:21.152Z,33.00
2023-04-30T12:48:21.191Z,33.00
2023-04-30T12:49:21.178Z,33.00
2023-04-30T12:50:21.230Z,32.98
2023-04-30T12:51:21.240Z,32.99
2023-04-30T12:52:21.254Z,33.00